Time;durP1;ratioP1;P1;durP2;ratioP2;P2;SDS_P1;SDS_P2;PMS_P1;PMS_P2;Temp;Humidity;BMP_temperature;BMP_pressure;BME280_temperature;BME280_humidity;BME280_pressure;Samples;Min_cycle;Max_cycle;Signal;HPM_P1;HPM_P2
2022/07/02 08:35:24;;;;;;;;;;;;;;;21.22;59.09;97333.88;4244297;27;10359;-64
2022/07/02 08:37:27;;;;;;;;;;;;;;;21.49;58.50;97329.44;4218649;28;5954;-65
2022/07/02 08:39:30;;;;;;;;;;;;;;;21.70;58.06;97318.94;4223943;28;5273;-65
2022/07/02 08:41:33;;;;;;;;;;;;;;;21.90;57.63;97316.47;4229814;28;5969;-65
2022/07/02 08:43:38;;;;;;;;;;;;;;;22.07;57.50;97313.72;4230914;28;5681;-64
2022/07/02 08:45:43;;;;;;;;;;;;;;;22.17;57.04;97313.81;4228550;28;5718;-64
2022/07/02 08:47:47;;;;;;;;;;;;;;;22.26;57.07;97317.69;4228861;28;5695;-64
2022/07/02 08:49:52;;;;;;;;;;;;;;;22.38;56.94;97309.44;4227562;28;5668;-65
2022/07/02 08:52:02;;;;;;;;;;;;;;;22.45;56.91;97303.84;4225599;28;5841;-65
2022/07/02 08:54:05;;;;;;;;;;;;;;;22.45;56.81;97315.44;4225875;28;5682;-65
2022/07/02 08:56:08;;;;;;;;;;;;;;;22.46;56.53;97322.44;4218906;28;5824;-65
2022/07/02 08:58:12;;;;;;;;;;;;;;;22.46;56.64;97317.06;4222524;28;5795;-65
2022/07/02 09:00:16;;;;;;;;;;;;;;;22.49;56.37;97311.16;4228430;28;5845;-65
2022/07/02 09:02:20;;;;;;;;;;;;;;;22.52;56.21;97310.63;4212854;28;5758;-65
2022/07/02 09:04:25;;;;;;;;;;;;;;;22.54;56.61;97302.31;4216483;28;5774;-64
2022/07/02 09:06:30;;;;;;;;;;;;;;;22.58;56.25;97303.41;4229125;28;5778;-65
2022/07/02 09:08:35;;;;;;;;;;;;;;;22.64;56.42;97308.56;4228981;28;5888;-65
2022/07/02 09:10:39;;;;;;;;;;;;;;;22.69;56.34;97310.50;4228677;28;5826;-65
2022/07/02 09:12:42;;;;;;;;;;;;;;;22.71;55.74;97319.16;4228695;28;6489;-65
2022/07/02 09:14:45;;;;;;;;;;;;;;;22.72;56.00;97319.97;4228603;28;5767;-65
2022/07/02 09:16:49;;;;;;;;;;;;;;;22.72;56.14;97317.25;4228824;28;5770;-65
2022/07/02 09:18:52;;;;;;;;;;;;;;;22.75;56.02;97314.03;4227254;28;5731;-65
2022/07/02 09:20:56;;;;;;;;;;;;;;;22.77;55.88;97317.31;4228690;28;5763;-65
2022/07/02 09:22:59;;;;;;;;;;;;;;;22.76;55.53;97310.28;4228598;28;5752;-65
2022/07/02 09:25:16;;;;;;;;;;;;;;;22.76;55.65;97311.09;4221208;28;6470;-64
2022/07/02 09:27:19;;;;;;;;;;;;;;;22.79;55.30;97315.97;4211500;28;5795;-64
2022/07/02 09:29:22;;;;;;;;;;;;;;;22.83;55.58;97322.50;4211658;28;5808;-63
2022/07/02 09:31:25;;;;;;;;;;;;;;;22.85;55.07;97314.97;4211494;28;5784;-64
2022/07/02 09:33:36;;;;;;;;;;;;;;;22.88;55.08;97316.34;4211128;28;5130;-64
2022/07/02 09:35:39;;;;;;;;;;;;;;;22.89;55.39;97318.78;4204201;28;5803;-64
2022/07/02 09:37:42;;;;;;;;;;;;;;;22.91;55.07;97323.91;4200230;28;5800;-64
2022/07/02 09:39:46;;;;;;;;;;;;;;;22.92;55.13;97325.53;4200010;28;6345;-65
2022/07/02 09:41:50;;;;;;;;;;;;;;;22.96;55.22;97326.63;4198648;28;5896;-64
2022/07/02 09:43:54;;;;;;;;;;;;;;;22.95;54.74;97316.91;4200093;28;5792;-63
2022/07/02 09:45:58;;;;;;;;;;;;;;;22.92;54.50;97320.97;4199936;28;5791;-64
2022/07/02 09:48:03;;;;;;;;;;;;;;;22.89;54.89;97326.06;4200084;28;5787;-63
2022/07/02 09:50:08;;;;;;;;;;;;;;;22.91;54.66;97323.91;4198669;28;5753;-64
2022/07/02 09:52:15;;;;;;;;;;;;;;;22.94;54.93;97318.00;4199964;28;6839;-64
2022/07/02 09:54:22;;;;;;;;;;;;;;;22.94;54.29;97326.09;4210562;28;5848;-64
2022/07/02 09:56:25;;;;;;;;;;;;;;;22.95;54.40;97325.00;4209268;28;5109;-65
2022/07/02 09:58:30;;;;;;;;;;;;;;;22.97;54.48;97327.44;4216831;28;6405;-64
2022/07/02 10:00:35;;;;;;;;;;;;;;;22.99;54.40;97328.00;4216666;28;5782;-65
2022/07/02 10:02:38;;;;;;;;;;;;;;;23.01;54.10;97321.28;4216827;28;5823;-64
2022/07/02 10:04:41;;;;;;;;;;;;;;;23.03;54.06;97319.13;4216798;28;6455;-64
2022/07/02 10:06:46;;;;;;;;;;;;;;;23.05;53.91;97313.47;4216859;28;5762;-64
2022/07/02 10:08:50;;;;;;;;;;;;;;;23.08;54.29;97316.47;4216727;28;5771;-65
2022/07/02 10:10:53;;;;;;;;;;;;;;;23.10;53.91;97317.00;4216484;28;5762;-64
2022/07/02 10:12:57;;;;;;;;;;;;;;;23.12;54.04;97317.59;4204962;28;5788;-65
2022/07/02 10:15:04;;;;;;;;;;;;;;;23.14;53.88;97309.22;4199885;28;5793;-64
2022/07/02 10:17:10;;;;;;;;;;;;;;;23.14;54.03;97310.03;4199719;28;5795;-65
2022/07/02 10:19:13;;;;;;;;;;;;;;;23.14;53.80;97311.94;4199829;28;5902;-64
2022/07/02 10:21:17;;;;;;;;;;;;;;;23.11;53.83;97315.97;4199651;28;5941;-64
2022/07/02 10:23:21;;;;;;;;;;;;;;;23.09;53.74;97301.91;4199492;28;5840;-64
2022/07/02 10:25:24;;;;;;;;;;;;;;;23.11;54.06;97297.09;4207557;28;5763;-64
2022/07/02 10:27:29;;;;;;;;;;;;;;;23.20;53.74;97305.47;4216009;28;5775;-64
2022/07/02 10:29:32;;;;;;;;;;;;;;;23.20;53.53;97303.59;4216110;28;5782;-65
2022/07/02 10:31:41;;;;;;;;;;;;;;;23.21;53.93;97297.13;4215325;28;6346;-64
2022/07/02 10:33:51;;;;;;;;;;;;;;;23.26;53.65;97303.63;4215720;28;5751;-64
2022/07/02 10:35:58;;;;;;;;;;;;;;;23.29;53.55;97290.44;4216011;28;5770;-64
2022/07/02 10:38:02;;;;;;;;;;;;;;;23.33;53.43;97304.19;4216075;28;5786;-65
2022/07/02 10:40:07;;;;;;;;;;;;;;;23.37;53.76;97297.22;4215709;28;5751;-65
2022/07/02 10:42:10;;;;;;;;;;;;;;;23.39;53.30;97297.75;4215729;28;5819;-65
2022/07/02 10:44:15;;;;;;;;;;;;;;;23.38;53.43;97296.13;4215952;28;5770;-65
2022/07/02 10:46:18;;;;;;;;;;;;;;;23.37;53.26;97289.94;4215539;28;5794;-65
2022/07/02 10:48:24;;;;;;;;;;;;;;;23.39;53.26;97295.06;4215380;28;5763;-65
2022/07/02 10:50:40;;;;;;;;;;;;;;;23.39;53.21;97293.16;4214164;28;5826;-65
2022/07/02 10:52:49;;;;;;;;;;;;;;;23.43;53.43;97290.75;4215799;28;6503;-65
2022/07/02 10:54:56;;;;;;;;;;;;;;;23.43;53.11;97282.66;4215302;28;7678;-65
2022/07/02 10:56:59;;;;;;;;;;;;;;;23.44;53.56;97289.69;4212058;28;5799;-65
2022/07/02 10:59:02;;;;;;;;;;;;;;;23.46;53.37;97280.25;4207802;28;6472;-65
2022/07/02 11:01:12;;;;;;;;;;;;;;;23.45;53.14;97278.66;4214253;28;5115;-65
2022/07/02 11:03:17;;;;;;;;;;;;;;;23.48;53.01;97280.00;4215922;28;6029;-65
2022/07/02 11:05:26;;;;;;;;;;;;;;;23.48;53.10;97274.59;4198823;28;5787;-65
2022/07/02 11:07:29;;;;;;;;;;;;;;;23.49;53.24;97270.81;4199243;28;5902;-65
2022/07/02 11:09:32;;;;;;;;;;;;;;;23.52;53.30;97275.69;4198824;28;5800;-64
2022/07/02 11:11:52;;;;;;;;;;;;;;;23.55;52.80;97267.06;4198826;28;6387;-64
2022/07/02 11:13:59;;;;;;;;;;;;;;;23.56;53.10;97262.47;4198955;28;5858;-64
2022/07/02 11:16:02;;;;;;;;;;;;;;;23.57;52.97;97264.94;4201455;28;5699;-64
2022/07/02 11:18:08;;;;;;;;;;;;;;;23.57;53.26;97261.41;4213479;28;5719;-65
2022/07/02 11:20:11;;;;;;;;;;;;;;;23.60;52.76;97256.31;4211392;28;5734;-64
2022/07/02 11:22:15;;;;;;;;;;;;;;;23.63;52.65;97252.28;4215702;28;5771;-64
2022/07/02 11:24:26;;;;;;;;;;;;;;;23.67;53.10;97261.47;4212023;28;5825;-64
2022/07/02 11:26:29;;;;;;;;;;;;;;;23.71;52.99;97249.88;4214865;28;5734;-64
2022/07/02 11:28:32;;;;;;;;;;;;;;;23.73;52.88;97253.13;4215416;28;5822;-64
2022/07/02 11:30:35;;;;;;;;;;;;;;;23.76;52.41;97255.28;4213931;28;5738;-64
2022/07/02 11:32:38;;;;;;;;;;;;;;;23.78;52.53;97253.16;4215400;28;5771;-64
2022/07/02 11:34:41;;;;;;;;;;;;;;;23.80;52.39;97248.28;4215131;28;5822;-64
2022/07/02 11:36:45;;;;;;;;;;;;;;;23.84;52.81;97245.03;4215251;28;6503;-64
2022/07/02 11:38:51;;;;;;;;;;;;;;;23.84;52.56;97245.03;4214931;28;5924;-63
2022/07/02 11:40:54;;;;;;;;;;;;;;;23.87;52.33;97239.09;4214973;28;5783;-63
2022/07/02 11:42:57;;;;;;;;;;;;;;;23.88;52.11;97235.31;4215080;28;5774;-64
2022/07/02 11:45:00;;;;;;;;;;;;;;;23.90;52.02;97239.41;4215222;28;5767;-64
2022/07/02 11:47:03;;;;;;;;;;;;;;;23.90;52.05;97236.69;4214530;28;6961;-64
2022/07/02 11:49:15;;;;;;;;;;;;;;;23.95;52.47;97230.50;4214961;28;5775;-64
2022/07/02 11:51:20;;;;;;;;;;;;;;;23.96;52.37;97229.41;4215466;28;5774;-64
2022/07/02 11:53:24;;;;;;;;;;;;;;;23.98;52.28;97221.84;4209656;28;5779;-64
2022/07/02 11:55:28;;;;;;;;;;;;;;;23.98;52.09;97225.34;4211970;28;5727;-65
2022/07/02 11:57:32;;;;;;;;;;;;;;;24.00;52.39;97225.06;4214166;28;5807;-64
2022/07/02 11:59:35;;;;;;;;;;;;;;;24.01;51.85;97218.59;4214752;28;5783;-64
2022/07/02 12:01:40;;;;;;;;;;;;;;;24.01;52.29;97218.59;4214808;28;5857;-65
2022/07/02 12:03:45;;;;;;;;;;;;;;;24.02;52.40;97228.34;4214628;28;5814;-65
2022/07/02 12:05:52;;;;;;;;;;;;;;;24.02;52.15;97221.06;4213728;28;5794;-65
2022/07/02 12:07:55;;;;;;;;;;;;;;;24.04;52.13;97212.69;4213745;28;5779;-65
2022/07/02 12:09:58;;;;;;;;;;;;;;;24.07;51.57;97217.53;4212369;28;5875;-65
2022/07/02 12:12:03;;;;;;;;;;;;;;;24.08;51.80;97219.16;4214770;28;5857;-64
2022/07/02 12:14:07;;;;;;;;;;;;;;;24.12;51.97;97209.44;4214788;28;5775;-65
2022/07/02 12:16:11;;;;;;;;;;;;;;;24.15;51.83;97219.72;4214809;28;5778;-65
2022/07/02 12:18:18;;;;;;;;;;;;;;;24.18;51.67;97211.06;4212123;28;5972;-65
2022/07/02 12:20:22;;;;;;;;;;;;;;;24.21;51.57;97209.69;4214678;28;5789;-65
2022/07/02 12:22:25;;;;;;;;;;;;;;;24.22;51.67;97204.03;4214739;28;6491;-64
2022/07/02 12:24:51;;;;;;;;;;;;;;;24.23;51.49;97208.34;4213845;28;5771;-65
2022/07/02 12:26:56;;;;;;;;;;;;;;;24.23;51.69;97202.94;4212878;28;6467;-65
2022/07/02 12:31:24;;;;;;;;;;;;;;;24.24;51.89;97212.69;4211755;28;5773;-65
2022/07/02 12:33:32;;;;;;;;;;;;;;;24.24;51.67;97207.28;4209776;28;5782;-65
2022/07/02 12:35:35;;;;;;;;;;;;;;;24.26;51.56;97205.13;4198066;28;5795;-64
2022/07/02 12:37:40;;;;;;;;;;;;;;;24.25;51.79;97206.22;4196427;28;5741;-64
2022/07/02 12:39:44;;;;;;;;;;;;;;;24.27;51.98;97200.53;4197377;28;6407;-64
2022/07/02 12:41:47;;;;;;;;;;;;;;;24.27;51.33;97195.94;4199303;28;5788;-65
2022/07/02 12:43:54;;;;;;;;;;;;;;;24.28;51.47;97192.16;4214481;28;5770;-64
2022/07/02 12:46:06;;;;;;;;;;;;;;;24.28;51.42;97183.25;4214184;28;5763;-64
2022/07/02 12:48:16;;;;;;;;;;;;;;;24.31;51.59;97186.22;4208405;28;5804;-65
2022/07/02 12:50:20;;;;;;;;;;;;;;;24.32;51.60;97190.53;4209368;28;5778;-65
2022/07/02 12:52:24;;;;;;;;;;;;;;;24.35;51.30;97190.03;4214601;28;5843;-65
2022/07/02 12:54:35;;;;;;;;;;;;;;;24.38;51.60;97197.59;4212435;28;5747;-65
2022/07/02 12:56:40;;;;;;;;;;;;;;;24.38;51.26;97197.59;4213837;28;5774;-65
2022/07/02 12:58:43;;;;;;;;;;;;;;;24.42;51.10;97197.84;4214556;28;5759;-65
2022/07/02 13:00:46;;;;;;;;;;;;;;;24.43;51.22;97198.66;4214386;28;5778;-65
2022/07/02 13:02:59;;;;;;;;;;;;;;;24.44;51.41;97189.47;4214700;28;5762;-65
2022/07/02 13:05:03;;;;;;;;;;;;;;;24.45;51.19;97196.47;4214397;28;5762;-65
2022/07/02 13:07:06;;;;;;;;;;;;;;;24.45;51.55;97197.28;4214471;28;5771;-66
2022/07/02 13:09:08;;;;;;;;;;;;;;;24.46;51.21;97201.59;4212856;28;5731;-65
2022/07/02 13:11:11;;;;;;;;;;;;;;;24.47;51.47;97194.34;4216303;28;5767;-65
2022/07/02 13:13:15;;;;;;;;;;;;;;;24.50;51.72;97191.91;4217657;28;6591;-65
2022/07/02 13:15:18;;;;;;;;;;;;;;;24.52;51.01;97197.03;4215860;28;5783;-65
2022/07/02 13:17:20;;;;;;;;;;;;;;;24.53;51.51;97199.44;4217383;28;5787;-65
2022/07/02 13:19:45;;;;;;;;;;;;;;;24.53;51.03;97188.63;4212568;28;5829;-65
2022/07/02 13:21:48;;;;;;;;;;;;;;;24.52;51.14;97191.63;4210355;28;5793;-65
2022/07/02 13:23:51;;;;;;;;;;;;;;;24.54;51.53;97184.03;4200322;28;5921;-64
2022/07/02 13:25:55;;;;;;;;;;;;;;;24.54;51.21;97184.84;4208747;28;5829;-64
2022/07/02 13:27:58;;;;;;;;;;;;;;;24.58;50.92;97190.53;4216790;28;5743;-64
2022/07/02 13:30:01;;;;;;;;;;;;;;;24.60;51.08;97193.78;4217153;28;5754;-65
2022/07/02 13:32:05;;;;;;;;;;;;;;;24.64;50.57;97192.13;4217352;28;5827;-65
2022/07/02 13:34:08;;;;;;;;;;;;;;;24.68;50.57;97190.50;4216871;28;5771;-65
2022/07/02 13:36:12;;;;;;;;;;;;;;;24.71;50.65;97176.44;4216929;28;5807;-65
2022/07/02 13:38:15;;;;;;;;;;;;;;;24.72;50.71;97175.38;4217136;28;5775;-65
2022/07/02 13:40:18;;;;;;;;;;;;;;;24.70;50.67;97180.25;4206371;28;5114;-65
2022/07/02 13:42:21;;;;;;;;;;;;;;;24.71;50.67;97189.97;4207468;28;5854;-65
2022/07/02 13:44:24;;;;;;;;;;;;;;;24.72;50.64;97175.38;4218934;28;5731;-65
2022/07/02 13:46:26;;;;;;;;;;;;;;;24.76;50.40;97179.13;4219790;28;5668;-65
2022/07/02 13:48:30;;;;;;;;;;;;;;;24.79;50.04;97175.88;4217338;28;5755;-65
2022/07/02 13:50:33;;;;;;;;;;;;;;;24.80;50.23;97169.38;4218750;28;5881;-65
2022/07/02 13:52:37;;;;;;;;;;;;;;;24.80;50.52;97165.84;4219390;28;5748;-65
2022/07/02 13:54:40;;;;;;;;;;;;;;;24.79;50.17;97169.66;4219668;28;6341;-65
2022/07/02 13:56:43;;;;;;;;;;;;;;;24.79;50.17;97173.16;4204404;28;5783;-65
2022/07/02 13:58:47;;;;;;;;;;;;;;;24.81;50.00;97172.91;4214720;28;5739;-65
2022/07/02 14:00:49;;;;;;;;;;;;;;;24.76;50.40;97171.03;4214472;28;5692;-65
2022/07/02 14:02:53;;;;;;;;;;;;;;;24.80;50.13;97177.47;4215283;28;5854;-65
2022/07/02 14:04:55;;;;;;;;;;;;;;;24.82;50.08;97174.53;4218511;28;5679;-65
2022/07/02 14:06:58;;;;;;;;;;;;;;;24.83;50.06;97168.03;4217696;28;5679;-65
2022/07/02 14:09:03;;;;;;;;;;;;;;;24.82;50.05;97166.41;4219426;28;5771;-65
2022/07/02 14:11:10;;;;;;;;;;;;;;;24.81;49.79;97165.63;4218104;28;5778;-65
2022/07/02 14:13:13;;;;;;;;;;;;;;;24.81;49.64;97160.22;4209339;28;5681;-65
2022/07/02 14:15:18;;;;;;;;;;;;;;;24.79;49.57;97153.44;4204347;28;5090;-65
2022/07/02 14:17:21;;;;;;;;;;;;;;;24.81;49.27;97156.69;4203227;28;5773;-65
2022/07/02 14:19:24;;;;;;;;;;;;;;;24.83;49.16;97152.63;4218659;28;5763;-65
2022/07/02 14:21:28;;;;;;;;;;;;;;;24.84;49.24;97154.25;4210677;28;5679;-65
2022/07/02 14:23:31;;;;;;;;;;;;;;;24.86;49.04;97159.38;4215130;28;5764;-65
2022/07/02 14:25:36;;;;;;;;;;;;;;;24.91;49.36;97157.44;4214996;28;5716;-64
2022/07/02 14:27:39;;;;;;;;;;;;;;;24.93;48.89;97159.91;4217540;28;5744;-65
2022/07/02 14:29:41;;;;;;;;;;;;;;;24.93;49.17;97162.59;4217501;28;5703;-65
2022/07/02 14:31:46;;;;;;;;;;;;;;;24.92;48.60;97159.09;4215649;28;5109;-66
2022/07/02 14:33:52;;;;;;;;;;;;;;;24.92;48.48;97159.09;4212433;28;5764;-65
2022/07/02 14:35:56;;;;;;;;;;;;;;;24.90;48.58;97150.41;4217299;28;5724;-66
2022/07/02 14:37:59;;;;;;;;;;;;;;;24.93;48.74;97155.28;4215426;28;5894;-63
2022/07/02 14:40:02;;;;;;;;;;;;;;;24.90;48.68;97147.72;4210003;28;6109;-64
2022/07/02 14:42:07;;;;;;;;;;;;;;;24.92;48.51;97150.97;4217135;28;5763;-64
2022/07/02 14:44:10;;;;;;;;;;;;;;;24.92;47.94;97140.16;4218901;28;6373;-64
2022/07/02 14:46:14;;;;;;;;;;;;;;;24.90;47.73;97150.41;4217874;28;5660;-64
2022/07/02 14:48:16;;;;;;;;;;;;;;;24.93;47.79;97141.78;4217306;28;5688;-64
2022/07/02 14:50:19;;;;;;;;;;;;;;;24.96;47.68;97140.41;4216013;28;5862;-64
2022/07/02 14:52:23;;;;;;;;;;;;;;;24.98;47.77;97138.22;4206157;28;5689;-64
2022/07/02 14:54:26;;;;;;;;;;;;;;;25.00;47.17;97143.34;4209271;28;5743;-65
2022/07/02 14:56:28;;;;;;;;;;;;;;;25.02;47.48;97135.78;4217727;28;6428;-65
2022/07/02 14:58:33;;;;;;;;;;;;;;;25.03;47.35;97137.41;4218063;28;5676;-65
2022/07/02 15:00:36;;;;;;;;;;;;;;;25.02;47.24;97139.31;4216508;28;6705;-65
2022/07/02 15:02:39;;;;;;;;;;;;;;;25.03;47.33;97138.25;4209195;28;5128;-65
2022/07/02 15:04:42;;;;;;;;;;;;;;;25.04;47.15;97136.34;4208127;28;5716;-65
2022/07/02 15:06:46;;;;;;;;;;;;;;;25.03;46.83;97132.00;4216838;28;5735;-65
2022/07/02 15:08:48;;;;;;;;;;;;;;;25.02;46.74;97136.59;4215163;28;5759;-65
2022/07/02 15:10:51;;;;;;;;;;;;;;;25.02;46.89;97135.78;4214465;28;5683;-65
2022/07/02 15:12:54;;;;;;;;;;;;;;;25.02;46.69;97133.09;4212282;28;5668;-65
2022/07/02 15:17:19;;;;;;;;;;;;;;;25.01;46.55;97124.16;4212299;28;5795;-65
2022/07/02 15:19:22;;;;;;;;;;;;;;;25.02;46.01;97131.19;4201990;28;5796;-65
2022/07/02 15:21:28;;;;;;;;;;;;;;;25.04;45.96;97128.25;4206998;28;6590;-64
2022/07/02 15:23:33;;;;;;;;;;;;;;;25.06;46.30;97126.06;4209838;28;5774;-65
2022/07/02 15:25:37;;;;;;;;;;;;;;;25.04;45.78;97123.63;4213829;28;5802;-64
2022/07/02 15:27:42;;;;;;;;;;;;;;;25.08;45.99;97123.88;4212168;28;5763;-64
2022/07/02 15:29:46;;;;;;;;;;;;;;;25.09;45.53;97120.09;4215315;28;5837;-64
2022/07/02 15:31:52;;;;;;;;;;;;;;;25.09;45.39;97117.38;4214653;28;5120;-64
2022/07/02 15:33:57;;;;;;;;;;;;;;;25.09;45.40;97120.91;4212093;28;5771;-65
2022/07/02 15:36:03;;;;;;;;;;;;;;;25.11;45.06;97115.19;4212039;28;5802;-64
2022/07/02 15:38:08;;;;;;;;;;;;;;;25.11;44.74;97112.50;4212307;28;5867;-64
2022/07/02 15:40:16;;;;;;;;;;;;;;;25.13;44.76;97118.44;4210691;28;5809;-64
2022/07/02 15:42:25;;;;;;;;;;;;;;;25.13;44.53;97118.44;4206160;28;5767;-65
2022/07/02 15:44:29;;;;;;;;;;;;;;;25.17;44.80;97111.41;4214795;28;5762;-64
2022/07/02 15:46:33;;;;;;;;;;;;;;;25.19;44.54;97109.22;4215052;28;5766;-65
2022/07/02 15:48:38;;;;;;;;;;;;;;;25.20;44.50;97105.41;4209179;28;5818;-65
2022/07/02 15:50:46;;;;;;;;;;;;;;;25.21;44.31;97107.03;4215125;28;5833;-65
2022/07/02 15:53:00;;;;;;;;;;;;;;;25.20;43.88;97106.22;4214961;28;5762;-65
2022/07/02 15:55:09;;;;;;;;;;;;;;;25.19;43.77;97106.50;4214613;28;5915;-65
2022/07/02 15:57:13;;;;;;;;;;;;;;;25.19;44.00;97103.81;4215343;28;5694;-65
2022/07/02 15:59:18;;;;;;;;;;;;;;;25.11;43.64;97077.34;4212935;28;5771;-65
2022/07/02 16:01:21;;;;;;;;;;;;;;;25.22;43.56;97097.81;4211672;28;5775;-65
2022/07/02 16:03:27;;;;;;;;;;;;;;;25.19;43.43;97099.19;4215124;28;5786;-65
2022/07/02 16:05:32;;;;;;;;;;;;;;;25.20;43.77;97094.59;4211872;28;5806;-66
2022/07/02 16:07:41;;;;;;;;;;;;;;;25.19;43.22;97096.50;4202434;28;5838;-65
2022/07/02 16:09:44;;;;;;;;;;;;;;;25.18;43.16;97096.78;4212910;28;5881;-65
2022/07/02 16:11:47;;;;;;;;;;;;;;;25.17;43.34;97095.16;4212019;28;5697;-66
2022/07/02 16:13:50;;;;;;;;;;;;;;;25.16;43.52;97098.97;4208194;28;5784;-65
2022/07/02 16:15:58;;;;;;;;;;;;;;;25.17;43.27;97095.16;4214445;28;5774;-65
2022/07/02 16:18:03;;;;;;;;;;;;;;;25.15;43.32;97092.75;4214799;28;5104;-66
2022/07/02 16:20:08;;;;;;;;;;;;;;;25.15;43.35;97090.03;4212666;28;5782;-65
2022/07/02 16:22:15;;;;;;;;;;;;;;;25.20;43.01;97092.69;4213256;28;5738;-65
2022/07/02 16:24:21;;;;;;;;;;;;;;;25.23;43.10;97089.44;4214600;28;6406;-65
2022/07/02 16:26:25;;;;;;;;;;;;;;;25.22;43.22;97092.41;4213322;28;6499;-65
2022/07/02 16:28:27;;;;;;;;;;;;;;;25.20;43.07;97083.78;4214511;28;5779;-66
2022/07/02 16:30:32;;;;;;;;;;;;;;;25.18;43.15;97083.25;4204322;28;5910;-65
2022/07/02 16:32:47;;;;;;;;;;;;;;;25.17;43.46;97082.44;4206448;28;5788;-65
2022/07/02 16:35:00;;;;;;;;;;;;;;;25.17;43.29;97079.75;4204401;28;5834;-65
2022/07/02 16:37:08;;;;;;;;;;;;;;;25.20;43.29;97079.19;4213798;28;5959;-65
2022/07/02 16:39:16;;;;;;;;;;;;;;;25.25;43.60;97072.91;4213287;28;5794;-65
2022/07/02 16:41:22;;;;;;;;;;;;;;;25.32;43.34;97068.00;4209600;28;5783;-65
2022/07/02 16:43:32;;;;;;;;;;;;;;;25.37;43.49;97078.81;4214284;28;5683;-65
2022/07/02 16:45:36;;;;;;;;;;;;;;;25.39;43.24;97070.41;4215390;28;5834;-65
2022/07/02 16:47:42;;;;;;;;;;;;;;;25.34;43.34;97063.13;4217254;28;5774;-64
2022/07/02 16:49:48;;;;;;;;;;;;;;;25.32;43.81;97065.31;4217195;28;5833;-64
2022/07/02 16:51:54;;;;;;;;;;;;;;;25.34;43.67;97063.13;4210544;28;5766;-65
2022/07/02 16:53:57;;;;;;;;;;;;;;;25.37;43.63;97057.16;4217548;28;5777;-64
2022/07/02 16:56:01;;;;;;;;;;;;;;;25.41;43.45;97054.69;4217531;28;5767;-64
2022/07/02 16:58:04;;;;;;;;;;;;;;;25.41;43.75;97066.31;4215806;28;5727;-65
2022/07/02 17:00:10;;;;;;;;;;;;;;;25.38;43.37;97058.78;4213917;28;5779;-65
2022/07/02 17:02:18;;;;;;;;;;;;;;;25.40;43.73;97061.19;4207722;28;5800;-65
2022/07/02 17:04:22;;;;;;;;;;;;;;;25.43;43.54;97063.34;4209647;28;5795;-65
2022/07/02 17:06:25;;;;;;;;;;;;;;;25.45;43.92;97056.53;4213472;28;5767;-66
2022/07/02 17:08:28;;;;;;;;;;;;;;;25.47;43.53;97057.06;4208264;28;5896;-73
2022/07/02 17:12:53;;;;;;;;;;;;;;;25.55;43.98;97048.34;4207770;28;5758;-80
2022/07/02 17:14:56;;;;;;;;;;;;;;;25.59;43.99;97054.00;4212273;28;5818;-77
2022/07/02 17:17:00;;;;;;;;;;;;;;;25.63;43.92;97056.97;4211813;28;5830;-78
2022/07/02 17:19:03;;;;;;;;;;;;;;;25.65;43.66;97055.59;4214411;28;5835;-78
2022/07/02 17:21:06;;;;;;;;;;;;;;;25.65;44.03;97055.59;4209233;28;5847;-78
2022/07/02 17:23:09;;;;;;;;;;;;;;;25.62;43.68;97048.03;4214413;28;5802;-78
2022/07/02 17:25:12;;;;;;;;;;;;;;;25.61;43.93;97041.00;4208788;28;5823;-81
2022/07/02 17:27:15;;;;;;;;;;;;;;;25.59;44.10;97043.16;4205230;28;5763;-80
2022/07/02 17:29:20;;;;;;;;;;;;;;;25.58;44.12;97046.97;4211973;28;5759;-82
2022/07/02 17:31:23;;;;;;;;;;;;;;;25.57;43.87;97050.75;4216718;28;6304;-83
2022/07/02 17:33:26;;;;;;;;;;;;;;;25.55;44.10;97045.66;4212115;28;5891;-78
2022/07/02 17:35:29;;;;;;;;;;;;;;;25.56;44.15;97046.44;4206862;28;5115;-79
2022/07/02 17:37:32;;;;;;;;;;;;;;;25.59;43.86;97047.78;4200895;28;5791;-79
2022/07/02 17:39:37;;;;;;;;;;;;;;;25.61;44.13;97051.03;4211590;28;5778;-82
2022/07/02 17:41:40;;;;;;;;;;;;;;;25.61;44.09;97040.19;4210159;28;5878;-84
2022/07/02 17:43:44;;;;;;;;;;;;;;;25.62;43.91;97042.63;4214366;28;5767;-80
2022/07/02 17:45:50;;;;;;;;;;;;;;;25.64;43.89;97045.03;4206678;28;5836;-81
2022/07/02 17:47:53;;;;;;;;;;;;;;;25.66;44.29;97042.84;4201516;28;5783;-78
2022/07/02 17:50:01;;;;;;;;;;;;;;;25.67;43.89;97044.47;4201714;28;5890;-85
2022/07/02 17:52:08;;;;;;;;;;;;;;;25.69;44.28;97047.69;4208057;28;5794;-81
2022/07/02 17:54:11;;;;;;;;;;;;;;;25.72;44.33;97047.19;4210324;28;5890;-80
2022/07/02 17:56:14;;;;;;;;;;;;;;;25.74;44.18;97045.78;4199465;28;5791;-79
2022/07/02 17:58:17;;;;;;;;;;;;;;;25.74;43.95;97051.22;4214619;28;5827;-77
2022/07/02 18:00:20;;;;;;;;;;;;;;;25.77;44.22;97047.13;4205356;28;5866;-82
2022/07/02 18:02:31;;;;;;;;;;;;;;;25.89;44.10;97044.84;4215177;28;5769;-77
2022/07/02 18:04:33;;;;;;;;;;;;;;;25.99;44.04;97052.06;4208510;28;5826;-76
2022/07/02 18:06:37;;;;;;;;;;;;;;;26.04;44.11;97050.09;4225177;28;6309;-79
2022/07/02 18:08:40;;;;;;;;;;;;;;;26.11;44.62;97056.00;4202498;28;5779;-83
2022/07/02 18:10:43;;;;;;;;;;;;;;;26.17;44.37;97055.97;4207740;28;5809;-80
2022/07/02 18:12:47;;;;;;;;;;;;;;;26.19;44.82;97056.50;4216799;28;5778;-77
2022/07/02 18:14:49;;;;;;;;;;;;;;;26.18;45.01;97052.16;4203984;28;5787;-76
2022/07/02 18:16:53;;;;;;;;;;;;;;;26.16;45.03;97062.44;4213221;28;5778;-85
2022/07/02 18:18:59;;;;;;;;;;;;;;;26.16;45.09;97062.44;4202082;28;5914;-81
2022/07/02 18:21:02;;;;;;;;;;;;;;;26.16;44.66;97062.44;4203915;28;5650;-80
2022/07/02 18:23:06;;;;;;;;;;;;;;;26.13;45.24;97063.84;4216312;28;5687;-81
2022/07/02 18:25:12;;;;;;;;;;;;;;;26.10;45.00;97061.72;4203617;28;5787;-83
2022/07/02 18:27:15;;;;;;;;;;;;;;;26.06;45.14;97066.91;4214146;28;5852;-82
2022/07/02 18:29:18;;;;;;;;;;;;;;;26.07;45.39;97060.38;4213652;28;5834;-79
2022/07/02 18:31:21;;;;;;;;;;;;;;;26.05;45.51;97065.28;4203952;28;5796;-81
2022/07/02 18:33:24;;;;;;;;;;;;;;;26.05;45.40;97067.19;4202650;28;5775;-80
2022/07/02 18:35:29;;;;;;;;;;;;;;;26.09;45.42;97063.63;4205620;28;5843;-79
2022/07/02 18:37:32;;;;;;;;;;;;;;;26.10;45.53;97076.06;4216174;28;5763;-77
2022/07/02 18:39:35;;;;;;;;;;;;;;;26.05;45.38;97068.00;4215581;28;5795;-77
2022/07/02 18:41:38;;;;;;;;;;;;;;;26.02;45.79;97073.97;4205966;28;5839;-78
2022/07/02 18:43:41;;;;;;;;;;;;;;;26.00;45.60;97072.66;4203978;28;5788;-79
2022/07/02 18:45:44;;;;;;;;;;;;;;;25.95;45.66;97078.94;4209826;28;5759;-76
2022/07/02 18:47:47;;;;;;;;;;;;;;;25.91;45.66;97072.44;4199388;28;5906;-77
2022/07/02 18:49:50;;;;;;;;;;;;;;;25.86;45.78;97069.78;4208730;28;5733;-76
2022/07/02 18:51:54;;;;;;;;;;;;;;;25.82;46.03;97071.44;4213745;28;5742;-81
2022/07/02 18:53:57;;;;;;;;;;;;;;;25.77;45.79;97066.88;4208736;28;5785;-76
2022/07/02 18:56:00;;;;;;;;;;;;;;;25.74;45.79;97082.91;4211742;28;5823;-77
2022/07/02 18:58:03;;;;;;;;;;;;;;;25.72;45.99;97074.25;4208677;28;5782;-77
2022/07/02 19:00:08;;;;;;;;;;;;;;;25.68;45.91;97076.66;4204001;28;5830;-78
2022/07/02 19:02:11;;;;;;;;;;;;;;;25.65;45.68;97074.53;4213976;28;5771;-78
2022/07/02 19:04:14;;;;;;;;;;;;;;;25.59;45.67;97072.94;4204326;28;5749;-78
2022/07/02 19:06:19;;;;;;;;;;;;;;;25.59;45.72;97074.84;4205120;28;5771;-77
2022/07/02 19:08:24;;;;;;;;;;;;;;;25.56;45.68;97076.22;4210447;28;7711;-77
2022/07/02 19:10:27;;;;;;;;;;;;;;;25.53;45.91;97074.91;4219477;28;5638;-77
2022/07/02 19:12:29;;;;;;;;;;;;;;;25.52;45.43;97078.69;4215855;28;5737;-77
2022/07/02 19:14:35;;;;;;;;;;;;;;;25.50;45.29;97075.47;4212609;28;5779;-77
2022/07/02 19:16:39;;;;;;;;;;;;;;;25.48;45.56;97077.66;4214659;28;5815;-81
2022/07/02 19:18:42;;;;;;;;;;;;;;;25.47;45.28;97078.72;4213652;28;5775;-81
2022/07/02 19:20:45;;;;;;;;;;;;;;;25.45;45.50;97075.50;4207382;28;6518;-81
2022/07/02 19:22:48;;;;;;;;;;;;;;;25.45;44.98;97083.59;4212588;28;5806;-81
2022/07/02 19:24:53;;;;;;;;;;;;;;;25.43;45.12;97088.50;4213951;28;5763;-80
2022/07/02 19:31:36;;;;;;;;;;;;;;;25.38;44.83;97091.25;4218844;28;5671;-79
2022/07/02 19:33:40;;;;;;;;;;;;;;;25.36;44.62;97088.00;4216856;28;5144;-85
2022/07/02 19:35:43;;;;;;;;;;;;;;;25.35;44.48;97099.91;4217582;28;5758;-83
2022/07/02 19:37:46;;;;;;;;;;;;;;;25.34;44.66;97100.19;4215064;28;5732;-79
2022/07/02 19:39:49;;;;;;;;;;;;;;;25.35;44.26;97105.31;4217247;28;5742;-76
2022/07/02 19:41:53;;;;;;;;;;;;;;;25.34;44.37;97111.00;4216910;28;6295;-75
2022/07/02 19:43:59;;;;;;;;;;;;;;;25.31;44.50;97104.28;4216486;28;5800;-75